createdAt,value
2022-12-04T00:01:14.449Z,4.50
2022-12-04T00:03:41.461Z,4.50
2022-12-04T00:06:11.955Z,4.50
2022-12-04T00:08:38.912Z,4.50
2022-12-04T00:11:07.059Z,4.50
2022-12-04T00:13:34.616Z,4.50
2022-12-04T00:16:03.703Z,4.40
2022-12-04T00:18:30.556Z,4.50
2022-12-04T00:20:57.431Z,4.50
2022-12-04T00:23:25.690Z,4.50
2022-12-04T00:25:53.345Z,4.40
2022-12-04T00:28:20.313Z,4.50
2022-12-04T00:30:47.160Z,4.40
2022-12-04T00:33:14.190Z,4.40
2022-12-04T00:35:41.123Z,4.50
2022-12-04T00:38:08.108Z,4.40
2022-12-04T00:40:36.323Z,4.40
2022-12-04T00:43:03.188Z,4.50
2022-12-04T00:45:30.127Z,4.40
2022-12-04T00:47:57.112Z,4.50
2022-12-04T00:50:24.029Z,4.50
2022-12-04T00:52:50.876Z,4.50
2022-12-04T00:55:17.991Z,4.40
2022-12-04T00:57:46.778Z,4.50
2022-12-04T01:00:14.071Z,4.50
2022-12-04T01:02:40.954Z,4.50
2022-12-04T01:05:08.847Z,4.50
2022-12-04T01:07:35.803Z,4.50
2022-12-04T01:10:03.337Z,4.40
2022-12-04T01:12:30.437Z,4.40
2022-12-04T01:14:58.633Z,4.40
2022-12-04T01:17:26.003Z,4.40
2022-12-04T01:19:53.334Z,4.30
2022-12-04T01:22:20.480Z,4.30
2022-12-04T01:24:47.573Z,4.30
2022-12-04T01:27:14.463Z,4.30
2022-12-04T01:29:41.436Z,4.30
2022-12-04T01:32:09.724Z,4.30
2022-12-04T01:34:36.708Z,4.30
2022-12-04T01:37:03.539Z,4.30
2022-12-04T01:39:30.345Z,4.30
2022-12-04T01:41:57.192Z,4.30
2022-12-04T01:44:26.013Z,4.30
2022-12-04T01:46:53.956Z,4.10
2022-12-04T01:49:25.932Z,4.30
2022-12-04T01:51:58.714Z,4.30
2022-12-04T01:54:29.347Z,4.30
2022-12-04T01:57:01.757Z,4.30
2022-12-04T01:59:33.446Z,4.30
2022-12-04T02:02:04.131Z,4.30
2022-12-04T02:04:34.269Z,4.30
2022-12-04T02:07:01.457Z,4.30
2022-12-04T02:09:29.297Z,4.30
2022-12-04T02:12:03.233Z,4.30
2022-12-04T02:14:37.706Z,4.30
2022-12-04T02:17:13.431Z,4.30
2022-12-04T02:20:00.358Z,4.30
2022-12-04T02:22:38.707Z,4.30
2022-12-04T02:25:12.860Z,4.30
2022-12-04T02:28:04.101Z,4.30
2022-12-04T02:30:34.695Z,4.30
2022-12-04T02:33:07.261Z,4.30
2022-12-04T02:35:38.219Z,4.40
2022-12-04T02:38:10.440Z,4.30
2022-12-04T02:40:45.264Z,4.30
2022-12-04T02:43:18.153Z,4.30
2022-12-04T02:45:48.221Z,4.30
2022-12-04T02:48:19.118Z,4.30
2022-12-04T02:50:49.648Z,4.30
2022-12-04T02:53:19.578Z,4.30
2022-12-04T02:55:51.360Z,4.40
2022-12-04T02:58:23.834Z,4.40
2022-12-04T03:00:52.098Z,4.30
2022-12-04T03:03:22.034Z,4.40
2022-12-04T03:05:55.536Z,4.30
2022-12-04T03:08:26.897Z,4.30
2022-12-04T03:10:57.864Z,4.30
2022-12-04T03:13:31.861Z,4.40
2022-12-04T03:16:03.998Z,4.30
2022-12-04T03:18:36.074Z,4.30
2022-12-04T03:21:05.850Z,4.30
2022-12-04T03:23:37.822Z,4.30
2022-12-04T03:26:10.824Z,4.30
2022-12-04T03:28:50.358Z,4.30
2022-12-04T03:31:24.951Z,4.30
2022-12-04T03:33:55.448Z,4.30
2022-12-04T03:36:27.957Z,4.30
2022-12-04T03:39:01.072Z,4.30
2022-12-04T03:41:37.351Z,4.30
2022-12-04T03:44:12.570Z,4.30
2022-12-04T03:46:44.590Z,4.30
2022-12-04T03:49:17.294Z,4.30
2022-12-04T03:51:50.779Z,4.30
2022-12-04T03:54:21.980Z,4.40
2022-12-04T03:56:54.274Z,4.30
2022-12-04T03:59:27.687Z,4.30
2022-12-04T04:01:57.596Z,4.30
2022-12-04T04:04:29.282Z,4.30
2022-12-04T04:07:02.913Z,4.30
2022-12-04T04:09:35.523Z,4.30
2022-12-04T04:12:08.852Z,4.30
2022-12-04T04:15:00.488Z,4.20
2022-12-04T04:17:49.869Z,4.20
2022-12-04T04:20:39.678Z,4.20
2022-12-04T04:23:28.185Z,4.10
2022-12-04T04:25:57.570Z,4.20
2022-12-04T04:28:32.696Z,4.20
2022-12-04T04:31:08.896Z,4.20
2022-12-04T04:33:45.990Z,4.20
2022-12-04T04:36:19.419Z,4.20
2022-12-04T04:38:53.526Z,4.20
2022-12-04T04:41:26.280Z,4.20
2022-12-04T04:43:59.579Z,4.20
2022-12-04T04:46:32.306Z,4.20
2022-12-04T04:49:02.734Z,4.20
2022-12-04T04:51:33.859Z,4.20
2022-12-04T04:54:04.727Z,4.20
2022-12-04T04:56:31.854Z,4.10
2022-12-04T04:58:58.656Z,4.10
2022-12-04T05:01:29.297Z,4.10
2022-12-04T05:03:56.186Z,4.10
2022-12-04T05:06:23.099Z,4.20
2022-12-04T05:08:49.927Z,4.10
2022-12-04T05:11:17.300Z,4.10
2022-12-04T05:13:44.455Z,4.10
2022-12-04T05:16:14.205Z,4.10
2022-12-04T05:19:03.207Z,4.10
2022-12-04T05:21:30.250Z,4.10
2022-12-04T05:23:57.090Z,4.10
2022-12-04T05:26:24.201Z,4.00
2022-12-04T05:28:51.404Z,4.00
2022-12-04T05:31:18.569Z,4.00
2022-12-04T05:33:47.040Z,4.00
2022-12-04T05:36:13.938Z,4.00
2022-12-04T05:38:40.773Z,4.00
2022-12-04T05:41:07.827Z,4.00
2022-12-04T05:43:35.335Z,3.90
2022-12-04T05:46:02.253Z,3.90
2022-12-04T05:48:29.098Z,3.90
2022-12-04T05:50:57.470Z,3.90
2022-12-04T05:53:24.575Z,3.90
2022-12-04T05:55:56.184Z,3.90
2022-12-04T05:58:23.450Z,3.80
2022-12-04T06:00:50.430Z,3.90
2022-12-04T06:03:17.413Z,3.90
2022-12-04T06:05:44.414Z,3.90
2022-12-04T06:08:12.614Z,3.90
2022-12-04T06:10:39.572Z,3.80
2022-12-04T06:13:07.282Z,3.70
2022-12-04T06:15:37.790Z,3.70
2022-12-04T06:18:04.791Z,3.70
2022-12-04T06:20:32.022Z,3.80
2022-12-04T06:22:58.943Z,3.80
2022-12-04T06:25:27.194Z,3.80
2022-12-04T06:27:54.054Z,3.80
2022-12-04T06:30:21.200Z,3.80
2022-12-04T06:32:48.102Z,3.80
2022-12-04T06:35:15.057Z,3.90
2022-12-04T06:37:41.937Z,3.90
2022-12-04T06:40:09.865Z,3.90
2022-12-04T06:42:38.081Z,3.90
2022-12-04T06:45:06.465Z,3.90
2022-12-04T06:47:35.022Z,3.90
2022-12-04T06:50:02.118Z,3.90
2022-12-04T06:52:28.931Z,3.90
2022-12-04T06:54:55.723Z,3.90
2022-12-04T06:57:22.662Z,3.90
2022-12-04T06:59:50.881Z,3.90
2022-12-04T07:02:17.996Z,3.80
2022-12-04T07:04:45.292Z,3.80
2022-12-04T07:07:12.577Z,3.80
2022-12-04T07:09:39.586Z,3.80
2022-12-04T07:12:07.099Z,3.90
2022-12-04T07:14:33.931Z,3.90
2022-12-04T07:17:02.171Z,3.90
2022-12-04T07:19:29.147Z,3.90
2022-12-04T07:21:56.013Z,3.90
2022-12-04T07:24:22.871Z,3.90
2022-12-04T07:26:49.739Z,3.90
2022-12-04T07:29:16.582Z,3.90
2022-12-04T07:31:44.418Z,3.90
2022-12-04T07:34:13.118Z,3.90
2022-12-04T07:36:40.754Z,3.90
2022-12-04T07:39:07.586Z,3.90
2022-12-04T07:41:35.385Z,3.90
2022-12-04T07:44:02.713Z,3.90
2022-12-04T07:46:29.711Z,3.80
2022-12-04T07:48:58.023Z,3.90
2022-12-04T07:51:27.751Z,3.90
2022-12-04T07:54:01.997Z,3.90
2022-12-04T07:56:30.675Z,3.80
2022-12-04T07:58:57.632Z,3.80
2022-12-04T08:01:25.065Z,3.90
2022-12-04T08:03:55.068Z,3.90
2022-12-04T08:06:23.714Z,3.90
2022-12-04T08:08:52.904Z,4.00
2022-12-04T08:11:23.189Z,4.00
2022-12-04T08:13:54.058Z,4.00
2022-12-04T08:16:20.935Z,4.00
2022-12-04T08:18:48.581Z,4.10
2022-12-04T08:21:17.779Z,4.10
2022-12-04T08:23:44.844Z,4.10
2022-12-04T08:26:13.738Z,4.10
2022-12-04T08:28:41.349Z,4.10
2022-12-04T08:31:10.717Z,4.10
2022-12-04T08:33:37.613Z,4.10
2022-12-04T08:36:07.378Z,4.20
2022-12-04T08:38:34.506Z,4.20
2022-12-04T08:41:02.042Z,4.20
2022-12-04T08:43:30.338Z,4.30
2022-12-04T08:45:58.024Z,4.30
2022-12-04T08:48:25.296Z,4.30
2022-12-04T08:50:52.219Z,4.30
2022-12-04T08:53:19.107Z,4.30
2022-12-04T08:55:46.054Z,4.30
2022-12-04T08:58:13.265Z,4.30
2022-12-04T09:00:41.568Z,4.30
2022-12-04T09:03:09.450Z,4.30
2022-12-04T09:05:36.286Z,4.30
2022-12-04T09:08:03.151Z,4.30
2022-12-04T09:10:30.118Z,4.20
2022-12-04T09:12:57.005Z,4.30
2022-12-04T09:15:23.907Z,4.30
2022-12-04T09:17:52.107Z,4.30
2022-12-04T09:20:19.142Z,4.30
2022-12-04T09:23:03.275Z,4.30
2022-12-04T09:25:31.454Z,4.40
2022-12-04T09:27:58.846Z,4.40
2022-12-04T09:30:25.828Z,4.40
2022-12-04T09:32:54.129Z,4.40
2022-12-04T09:35:21.032Z,4.40
2022-12-04T09:37:47.878Z,4.40
2022-12-04T09:40:25.184Z,4.40
2022-12-04T09:43:01.986Z,4.50
2022-12-04T09:45:33.717Z,4.50
2022-12-04T09:48:02.175Z,4.50
2022-12-04T09:50:35.960Z,4.50
2022-12-04T09:53:06.422Z,4.60
2022-12-04T09:55:39.902Z,4.60
2022-12-04T09:58:12.304Z,4.70
2022-12-04T10:00:42.333Z,4.70
2022-12-04T10:03:16.201Z,4.70
2022-12-04T10:05:52.612Z,4.70
2022-12-04T10:08:22.784Z,4.70
2022-12-04T10:10:58.757Z,4.70
2022-12-04T10:13:48.407Z,4.70
2022-12-04T10:16:23.276Z,4.70
2022-12-04T10:18:58.401Z,4.70
2022-12-04T10:21:42.231Z,4.70
2022-12-04T10:24:21.501Z,4.70
2022-12-04T10:26:49.189Z,4.70
2022-12-04T10:29:20.815Z,4.70
2022-12-04T10:31:50.058Z,4.70
2022-12-04T10:34:21.122Z,4.60
2022-12-04T10:36:54.284Z,4.60
2022-12-04T10:39:25.708Z,4.60
2022-12-04T10:41:59.170Z,4.60
2022-12-04T10:44:26.200Z,4.60
2022-12-04T10:46:56.851Z,4.60
2022-12-04T10:49:28.235Z,4.60
2022-12-04T10:51:55.316Z,4.70
2022-12-04T10:54:26.940Z,4.70
2022-12-04T10:56:56.000Z,4.80
2022-12-04T10:59:23.551Z,4.80
2022-12-04T11:01:52.172Z,4.80
2022-12-04T11:04:23.714Z,4.90
2022-12-04T11:07:01.132Z,4.90
2022-12-04T11:09:29.499Z,4.90
2022-12-04T11:12:07.371Z,4.90
2022-12-04T11:14:34.252Z,4.90
2022-12-04T11:17:04.164Z,4.90
2022-12-04T11:19:33.493Z,4.90
2022-12-04T11:22:11.920Z,4.90
2022-12-04T11:24:40.671Z,5.00
2022-12-04T11:27:16.620Z,5.00
2022-12-04T11:29:45.574Z,5.00
2022-12-04T11:32:22.104Z,5.00
2022-12-04T11:34:51.912Z,5.00
2022-12-04T11:37:24.815Z,5.00
2022-12-04T11:39:52.401Z,5.10
2022-12-04T11:42:23.297Z,5.10
2022-12-04T11:44:53.351Z,5.10
2022-12-04T11:47:21.833Z,5.20
2022-12-04T11:50:01.528Z,5.20
2022-12-04T11:52:45.316Z,5.30
2022-12-04T11:55:17.381Z,5.30
2022-12-04T11:57:51.340Z,5.30
2022-12-04T12:00:20.644Z,5.30
2022-12-04T12:03:09.917Z,5.30
2022-12-04T12:05:53.791Z,5.30
2022-12-04T12:08:34.527Z,5.40
2022-12-04T12:11:07.871Z,5.40
2022-12-04T12:13:43.472Z,5.50
2022-12-04T12:16:20.990Z,5.50
2022-12-04T12:19:01.302Z,5.60
2022-12-04T12:21:39.426Z,5.60
2022-12-04T12:24:25.743Z,5.60
2022-12-04T12:27:04.794Z,5.60
2022-12-04T12:29:50.274Z,5.60
2022-12-04T12:32:38.435Z,5.60
2022-12-04T12:35:13.193Z,5.60
2022-12-04T12:37:44.275Z,5.60
2022-12-04T12:40:21.784Z,5.60
2022-12-04T12:42:57.982Z,5.60
2022-12-04T12:45:31.003Z,5.60
2022-12-04T12:48:08.483Z,5.60
2022-12-04T12:50:42.481Z,5.70
2022-12-04T12:53:13.951Z,5.70
2022-12-04T12:55:47.228Z,5.70
2022-12-04T12:58:18.902Z,5.70
2022-12-04T13:01:05.193Z,5.70
2022-12-04T13:03:40.517Z,5.70
2022-12-04T13:06:13.364Z,5.70
2022-12-04T13:08:49.267Z,5.70
2022-12-04T13:11:21.637Z,5.80
2022-12-04T13:13:52.979Z,5.80
2022-12-04T13:16:23.829Z,5.80
2022-12-04T13:18:56.283Z,5.70
2022-12-04T13:21:31.953Z,5.80
2022-12-04T13:24:35.149Z,5.80
2022-12-04T13:27:09.458Z,5.70
2022-12-04T13:29:57.606Z,5.70
2022-12-04T13:32:45.142Z,5.70
2022-12-04T13:35:22.038Z,5.70
2022-12-04T13:38:05.980Z,5.70
2022-12-04T13:40:36.652Z,5.70
2022-12-04T13:43:27.549Z,5.60
2022-12-04T13:45:56.309Z,5.70
2022-12-04T13:48:32.689Z,5.60
2022-12-04T13:51:05.606Z,5.60
2022-12-04T13:53:35.051Z,5.60
2022-12-04T13:56:07.336Z,5.50
2022-12-04T13:58:36.538Z,5.50
2022-12-04T14:01:06.368Z,5.50
2022-12-04T14:03:38.745Z,5.40
2022-12-04T14:06:22.010Z,5.50
2022-12-04T14:08:54.527Z,5.40
2022-12-04T14:11:21.646Z,5.40
2022-12-04T14:13:52.080Z,5.40
2022-12-04T14:16:23.171Z,5.30
2022-12-04T14:18:53.379Z,5.30
2022-12-04T14:21:20.399Z,5.30
2022-12-04T14:23:47.866Z,5.30
2022-12-04T14:26:29.251Z,5.20
2022-12-04T14:29:38.948Z,5.20
2022-12-04T14:32:13.617Z,5.20
2022-12-04T14:34:40.974Z,5.20
2022-12-04T14:37:20.346Z,5.20
2022-12-04T14:39:49.100Z,5.30
2022-12-04T14:42:22.484Z,5.30
2022-12-04T14:44:55.320Z,5.40
2022-12-04T14:47:34.900Z,5.40
2022-12-04T14:50:16.256Z,5.40
2022-12-04T14:52:48.429Z,5.40
2022-12-04T14:55:22.505Z,5.40
2022-12-04T14:57:54.950Z,5.40
2022-12-04T15:00:24.482Z,5.40
2022-12-04T15:02:54.816Z,5.40
2022-12-04T15:05:27.149Z,5.40
2022-12-04T15:07:58.561Z,5.40
2022-12-04T15:10:45.746Z,5.40
2022-12-04T15:13:21.394Z,5.40
2022-12-04T15:15:50.369Z,5.40
2022-12-04T15:18:17.640Z,5.40
2022-12-04T15:20:56.243Z,5.40
2022-12-04T15:23:28.096Z,5.40
2022-12-04T15:25:57.048Z,5.40
2022-12-04T15:28:29.083Z,5.40
2022-12-04T15:31:00.270Z,5.40
2022-12-04T15:33:29.699Z,5.40
2022-12-04T15:36:00.041Z,5.40
2022-12-04T15:38:27.577Z,5.40
2022-12-04T15:40:56.077Z,5.40
2022-12-04T15:43:28.535Z,5.40
2022-12-04T15:45:57.107Z,5.40
2022-12-04T15:48:29.005Z,5.40
2022-12-04T15:50:57.863Z,5.40
2022-12-04T15:53:28.036Z,5.40
2022-12-04T15:55:57.054Z,5.40
2022-12-04T15:58:27.577Z,5.40
2022-12-04T16:00:57.975Z,5.40
2022-12-04T16:03:28.031Z,5.40
2022-12-04T16:06:06.884Z,5.40
2022-12-04T16:08:35.613Z,5.40
2022-12-04T16:11:05.395Z,5.40
2022-12-04T16:13:34.931Z,5.40
2022-12-04T16:16:06.677Z,5.40
2022-12-04T16:18:33.760Z,5.40
2022-12-04T16:21:00.966Z,5.40
2022-12-04T16:23:27.852Z,5.40
2022-12-04T16:25:54.810Z,5.40
2022-12-04T16:28:21.772Z,5.40
2022-12-04T16:30:51.358Z,5.30
2022-12-04T16:33:19.796Z,5.30
2022-12-04T16:35:46.672Z,5.30
2022-12-04T16:38:16.000Z,5.30
2022-12-04T16:40:43.561Z,5.30
2022-12-04T16:43:12.922Z,5.20
2022-12-04T16:45:45.016Z,5.20
2022-12-04T16:48:12.013Z,5.20
2022-12-04T16:50:40.202Z,5.20
2022-12-04T16:53:07.470Z,5.30
2022-12-04T16:55:36.370Z,5.20
2022-12-04T16:58:03.470Z,5.20
2022-12-04T17:00:30.426Z,5.30
2022-12-04T17:02:57.574Z,5.30
2022-12-04T17:05:28.118Z,5.30
2022-12-04T17:07:56.602Z,5.30
2022-12-04T17:10:24.525Z,5.30
2022-12-04T17:12:52.669Z,5.30
2022-12-04T17:15:20.043Z,5.20
2022-12-04T17:17:46.843Z,5.20
2022-12-04T17:20:16.223Z,5.30
2022-12-04T17:22:43.408Z,5.30
2022-12-04T17:25:12.322Z,5.30
2022-12-04T17:27:39.742Z,5.30
2022-12-04T17:30:08.133Z,5.30
2022-12-04T17:32:35.309Z,5.30
2022-12-04T17:35:03.577Z,5.40
2022-12-04T17:37:31.623Z,5.40
2022-12-04T17:39:58.688Z,5.40
2022-12-04T17:42:27.438Z,5.30
2022-12-04T17:44:54.391Z,5.30
2022-12-04T17:47:21.507Z,5.30
2022-12-04T17:49:48.365Z,5.30
2022-12-04T17:52:15.376Z,5.30
2022-12-04T17:54:42.283Z,5.20
2022-12-04T17:57:09.136Z,5.30
2022-12-04T17:59:37.405Z,5.20
2022-12-04T18:02:04.213Z,5.20
2022-12-04T18:04:31.011Z,5.20
2022-12-04T18:06:57.950Z,5.20
2022-12-04T18:09:24.789Z,5.10
2022-12-04T18:11:51.709Z,5.10
2022-12-04T18:14:22.127Z,5.10
2022-12-04T18:16:53.433Z,5.10
2022-12-04T18:19:21.843Z,5.00
2022-12-04T18:21:49.009Z,5.00
2022-12-04T18:24:16.422Z,5.00
2022-12-04T18:26:47.984Z,5.00
2022-12-04T18:29:17.861Z,5.00
2022-12-04T18:31:45.541Z,5.10
2022-12-04T18:34:14.165Z,5.10
2022-12-04T18:36:41.603Z,5.10
2022-12-04T18:39:12.203Z,5.10
2022-12-04T18:41:39.191Z,5.10
2022-12-04T18:44:06.138Z,5.10
2022-12-04T18:46:33.408Z,5.10
2022-12-04T18:49:01.014Z,5.10
2022-12-04T18:51:30.711Z,5.10
2022-12-04T18:53:59.284Z,5.10
2022-12-04T18:56:26.631Z,5.00
2022-12-04T18:58:57.614Z,5.00
2022-12-04T19:01:24.829Z,5.00
2022-12-04T19:03:56.179Z,5.00
2022-12-04T19:06:29.306Z,4.90
2022-12-04T19:08:58.226Z,4.90
2022-12-04T19:11:25.055Z,5.00
2022-12-04T19:13:52.105Z,5.00
2022-12-04T19:16:21.654Z,5.00
2022-12-04T19:18:48.563Z,5.10
2022-12-04T19:21:16.389Z,5.10
2022-12-04T19:23:50.785Z,5.10
2022-12-04T19:26:18.131Z,5.10
2022-12-04T19:28:45.157Z,5.10
2022-12-04T19:31:15.741Z,5.10
2022-12-04T19:33:43.013Z,5.00
2022-12-04T19:36:12.495Z,5.10
2022-12-04T19:38:40.333Z,5.10
2022-12-04T19:41:11.297Z,5.10
2022-12-04T19:43:39.324Z,5.20
2022-12-04T19:46:07.491Z,5.20
2022-12-04T19:48:34.475Z,5.20
2022-12-04T19:51:05.959Z,5.20
2022-12-04T19:53:39.281Z,5.20
2022-12-04T19:56:13.131Z,5.30
2022-12-04T19:58:40.644Z,5.30
2022-12-04T20:01:09.527Z,5.30
2022-12-04T20:03:36.694Z,5.30
2022-12-04T20:06:04.062Z,5.30
2022-12-04T20:08:30.907Z,5.30
2022-12-04T20:11:03.888Z,5.30
2022-12-04T20:13:34.258Z,5.30
2022-12-04T20:16:02.292Z,5.30
2022-12-04T20:18:29.664Z,5.40
2022-12-04T20:20:57.353Z,5.30
2022-12-04T20:23:24.417Z,5.40
2022-12-04T20:25:51.455Z,5.40
2022-12-04T20:28:18.669Z,5.30
2022-12-04T20:30:47.587Z,5.40
2022-12-04T20:33:14.522Z,5.30
2022-12-04T20:35:41.400Z,5.30
2022-12-04T20:38:08.296Z,5.30
2022-12-04T20:40:38.146Z,5.30
2022-12-04T20:43:05.115Z,5.30
2022-12-04T20:45:34.231Z,5.30
2022-12-04T20:48:02.714Z,5.30
2022-12-04T20:50:29.614Z,5.30
2022-12-04T20:52:56.465Z,5.30
2022-12-04T20:55:23.302Z,5.30
2022-12-04T20:57:50.189Z,5.20
2022-12-04T21:00:17.607Z,5.20
2022-12-04T21:02:44.549Z,5.30
2022-12-04T21:05:13.027Z,5.30
2022-12-04T21:07:39.960Z,5.30
2022-12-04T21:10:08.247Z,5.20
2022-12-04T21:12:53.937Z,5.20
2022-12-04T21:15:39.572Z,5.20
2022-12-04T21:18:08.194Z,5.20
2022-12-04T21:20:36.370Z,5.20
2022-12-04T21:23:03.268Z,5.20
2022-12-04T21:25:30.157Z,5.20
2022-12-04T21:27:57.125Z,5.30
2022-12-04T21:30:24.017Z,5.30
2022-12-04T21:32:50.825Z,5.30
2022-12-04T21:35:17.945Z,5.30
2022-12-04T21:37:46.185Z,5.30
2022-12-04T21:40:13.101Z,5.30
2022-12-04T21:42:40.345Z,5.40
2022-12-04T21:45:08.772Z,5.40
2022-12-04T21:47:37.237Z,5.40
2022-12-04T21:50:05.207Z,5.40
2022-12-04T21:52:32.247Z,5.40
2022-12-04T21:55:00.490Z,5.40
2022-12-04T21:57:28.137Z,5.30
2022-12-04T21:59:55.375Z,5.20
2022-12-04T22:02:22.387Z,5.40
2022-12-04T22:04:49.529Z,5.50
2022-12-04T22:07:16.629Z,5.50
2022-12-04T22:09:43.627Z,5.50
2022-12-04T22:12:41.144Z,5.50
2022-12-04T22:14:59.232Z,5.50
2022-12-04T22:17:29.063Z,5.50
2022-12-04T22:19:56.093Z,5.50
2022-12-04T22:22:23.047Z,5.40
2022-12-04T22:24:49.938Z,5.40
2022-12-04T22:27:18.078Z,5.40
2022-12-04T22:29:52.008Z,5.40
2022-12-04T22:32:19.271Z,5.40
2022-12-04T22:34:48.183Z,5.30
2022-12-04T22:37:15.091Z,5.30
2022-12-04T22:39:41.952Z,5.30
2022-12-04T22:42:08.758Z,5.30
2022-12-04T22:44:36.839Z,5.30
2022-12-04T22:47:04.048Z,5.30
2022-12-04T22:49:30.798Z,5.30
2022-12-04T22:51:57.654Z,5.30
2022-12-04T22:54:24.371Z,5.20
2022-12-04T22:56:51.195Z,5.20
2022-12-04T22:59:17.978Z,5.20
2022-12-04T23:01:46.200Z,5.20
2022-12-04T23:04:13.077Z,5.20
2022-12-04T23:06:39.950Z,5.20
2022-12-04T23:09:09.120Z,5.20
2022-12-04T23:11:36.511Z,5.20
2022-12-04T23:14:05.853Z,5.20
2022-12-04T23:16:35.724Z,5.20
2022-12-04T23:19:05.641Z,5.20
2022-12-04T23:21:32.804Z,5.20
2022-12-04T23:23:59.869Z,5.20
2022-12-04T23:26:31.816Z,5.20
2022-12-04T23:28:59.032Z,5.20
2022-12-04T23:31:26.069Z,5.20
2022-12-04T23:33:52.974Z,5.10
2022-12-04T23:36:21.445Z,5.10
2022-12-04T23:38:48.563Z,5.10
2022-12-04T23:41:17.160Z,5.10
2022-12-04T23:43:44.844Z,5.10
2022-12-04T23:46:13.219Z,5.10
2022-12-04T23:48:41.400Z,5.10
2022-12-04T23:51:08.853Z,5.10
2022-12-04T23:53:37.777Z,5.10
2022-12-04T23:56:07.020Z,5.10
2022-12-04T23:58:35.335Z,5.10
